Time;durP1;ratioP1;P1;durP2;ratioP2;P2;SDS_P1;SDS_P2;PMS_P1;PMS_P2;Temp;Humidity;BMP_temperature;BMP_pressure;BME280_temperature;BME280_humidity;BME280_pressure;Samples;Min_cycle;Max_cycle;Signal;HPM_P1;HPM_P2
2024/03/21 00:01:35;;;;;;;21.58;14.85;;;16.00;92.70;;;;;;5092305;28;20120;-76
2024/03/21 00:04:02;;;;;;;17.58;13.80;;;15.90;92.60;;;;;;5092097;28;20078;-78
2024/03/21 00:06:27;;;;;;;17.75;13.65;;;15.90;92.70;;;;;;5092150;28;20111;-76
2024/03/21 00:08:53;;;;;;;16.83;12.77;;;15.80;92.80;;;;;;5091991;28;20190;-74
2024/03/21 00:11:19;;;;;;;19.85;13.32;;;15.80;92.80;;;;;;5092179;28;20395;-76
2024/03/21 00:13:45;;;;;;;16.40;12.82;;;15.80;92.80;;;;;;5092003;28;20032;-77
2024/03/21 00:16:12;;;;;;;20.52;13.75;;;15.80;92.80;;;;;;5093842;28;20047;-75
2024/03/21 00:18:38;;;;;;;20.67;13.80;;;15.70;92.70;;;;;;5096237;28;20066;-75
2024/03/21 00:21:04;;;;;;;25.25;16.73;;;15.70;92.70;;;;;;5095661;28;20032;-77
2024/03/21 00:23:30;;;;;;;21.45;15.95;;;15.70;92.50;;;;;;5096258;28;20111;-76
2024/03/21 00:26:03;;;;;;;25.00;17.73;;;15.70;92.40;;;;;;5095635;28;20150;-75
2024/03/21 00:28:29;;;;;;;27.02;18.02;;;15.70;92.40;;;;;;5095614;28;20392;-75
2024/03/21 00:30:56;;;;;;;24.13;17.65;;;15.60;92.20;;;;;;5095648;28;20070;-76
2024/03/21 00:33:22;;;;;;;26.77;18.10;;;15.50;92.10;;;;;;5095444;28;20036;-74
2024/03/21 00:35:48;;;;;;;25.77;18.45;;;15.40;92.00;;;;;;5095805;28;20032;-76
2024/03/21 00:38:14;;;;;;;25.98;18.55;;;15.30;92.00;;;;;;5096683;28;20040;-76
2024/03/21 00:40:40;;;;;;;25.95;18.48;;;15.20;91.90;;;;;;5095786;28;20101;-76
2024/03/21 00:43:05;;;;;;;26.98;18.50;;;15.20;92.00;;;;;;5077029;28;20035;-76
2024/03/21 00:45:32;;;;;;;26.23;18.52;;;15.20;91.90;;;;;;5076899;28;20056;-75
2024/03/21 00:47:57;;;;;;;26.90;19.40;;;15.10;91.80;;;;;;5094964;28;20040;-76
2024/03/21 00:50:23;;;;;;;27.13;20.20;;;15.10;91.70;;;;;;5095289;28;20024;-75
2024/03/21 00:52:48;;;;;;;30.40;19.95;;;15.10;91.70;;;;;;5095057;28;20036;-74
2024/03/21 00:55:15;;;;;;;29.85;20.63;;;15.00;91.70;;;;;;5076774;28;20043;-75
2024/03/21 00:57:40;;;;;;;26.30;20.75;;;15.10;91.70;;;;;;5077040;28;20483;-75
2024/03/21 01:00:09;;;;;;;32.63;20.35;;;14.90;91.40;;;;;;5094885;28;20047;-75
2024/03/21 01:02:35;;;;;;;29.92;20.80;;;14.90;91.50;;;;;;5094726;28;20502;-74
2024/03/21 01:05:01;;;;;;;25.95;19.45;;;14.90;91.50;;;;;;5094753;28;20028;-74
2024/03/21 01:07:27;;;;;;;31.13;20.30;;;14.90;91.40;;;;;;5094826;28;20028;-75
2024/03/21 01:09:53;;;;;;;28.05;20.25;;;15.00;91.40;;;;;;5094687;28;20039;-76
2024/03/21 01:12:19;;;;;;;27.33;21.42;;;14.90;91.30;;;;;;5090188;28;20025;-74
2024/03/21 01:14:45;;;;;;;25.00;19.85;;;14.90;91.00;;;;;;5082386;28;20047;-75
2024/03/21 01:17:10;;;;;;;30.30;19.17;;;14.80;91.00;;;;;;5094608;28;20024;-75
2024/03/21 01:19:37;;;;;;;29.98;19.88;;;14.80;91.00;;;;;;5095029;28;20527;-74
2024/03/21 01:22:03;;;;;;;30.23;21.08;;;14.80;91.00;;;;;;5094549;28;20500;-75
2024/03/21 01:24:28;;;;;;;29.40;20.83;;;14.70;90.90;;;;;;5094816;28;20039;-75
2024/03/21 01:26:54;;;;;;;25.80;20.77;;;14.60;90.80;;;;;;5076225;28;20460;-74
2024/03/21 01:29:20;;;;;;;26.67;19.83;;;14.60;90.90;;;;;;5094559;28;20427;-75
2024/03/21 01:31:45;;;;;;;23.95;19.40;;;14.50;90.80;;;;;;5094487;28;20032;-74
2024/03/21 01:34:11;;;;;;;28.30;19.33;;;14.50;90.90;;;;;;5094284;28;20044;-73
2024/03/21 01:36:45;;;;;;;23.25;17.73;;;14.50;90.80;;;;;;5094592;28;20475;-75
2024/03/21 01:39:12;;;;;;;21.60;16.55;;;14.40;91.10;;;;;;5094229;28;20447;-74
2024/03/21 01:41:37;;;;;;;18.55;15.68;;;14.30;90.70;;;;;;5093507;28;20100;-75
2024/03/21 01:44:03;;;;;;;21.00;15.77;;;14.20;90.80;;;;;;5087456;28;20056;-74
2024/03/21 01:46:29;;;;;;;21.92;16.42;;;14.20;90.80;;;;;;5091711;28;20086;-75
2024/03/21 01:48:54;;;;;;;20.02;14.88;;;14.20;90.80;;;;;;5073170;28;20040;-74
2024/03/21 01:51:23;;;;;;;23.38;16.35;;;14.20;90.90;;;;;;5076101;28;20037;-75
2024/03/21 01:53:52;;;;;;;21.65;16.13;;;14.20;90.80;;;;;;5076038;28;20113;-75
2024/03/21 01:56:18;;;;;;;23.25;16.05;;;14.30;90.90;;;;;;5094034;28;20373;-74
2024/03/21 01:58:44;;;;;;;20.75;15.95;;;14.40;90.90;;;;;;5084734;28;20107;-74
2024/03/21 02:01:27;;;;;;;20.90;16.00;;;14.40;90.70;;;;;;5073589;28;20036;-74
2024/03/21 02:03:55;;;;;;;23.48;16.23;;;14.40;90.60;;;;;;5073864;28;20032;-75
2024/03/21 02:06:25;;;;;;;25.45;17.48;;;14.40;90.70;;;;;;5074110;28;20040;-74
2024/03/21 02:08:53;;;;;;;22.20;16.33;;;14.40;90.70;;;;;;5073295;28;20540;-74
2024/03/21 02:11:19;;;;;;;23.25;16.25;;;14.40;90.70;;;;;;5073782;28;20032;-74
2024/03/21 02:13:46;;;;;;;22.00;15.25;;;14.40;90.80;;;;;;5073118;28;20045;-76
2024/03/21 02:16:13;;;;;;;22.05;15.00;;;14.40;90.80;;;;;;5055083;28;20123;-74
2024/03/21 02:18:38;;;;;;;21.38;15.18;;;14.40;90.80;;;;;;5073318;28;20028;-75
2024/03/21 02:22:35;;;;;;;18.25;14.10;;;14.40;90.70;;;;;;5073159;28;20049;-74
2024/03/21 02:23:51;;;;;;;18.92;14.13;;;14.30;90.70;;;;;;5072984;28;20086;-75
2024/03/21 02:26:17;;;;;;;20.42;14.25;;;14.30;90.80;;;;;;5056442;28;20492;-75
2024/03/21 02:28:42;;;;;;;20.88;13.93;;;14.30;90.80;;;;;;5076419;28;20081;-75
2024/03/21 02:31:08;;;;;;;17.65;13.48;;;14.30;90.70;;;;;;5072827;28;20525;-74
2024/03/21 02:33:34;;;;;;;23.00;14.73;;;14.30;90.60;;;;;;5072585;28;20504;-75
2024/03/21 02:36:00;;;;;;;18.48;13.80;;;14.30;90.80;;;;;;5072389;28;20033;-76
2024/03/21 02:38:25;;;;;;;17.08;13.45;;;14.30;90.70;;;;;;5072244;28;20570;-75
2024/03/21 02:40:51;;;;;;;18.20;14.07;;;14.30;90.70;;;;;;5072904;28;20029;-74
2024/03/21 02:43:17;;;;;;;19.75;14.43;;;14.30;90.70;;;;;;5072994;28;20056;-74
2024/03/21 02:45:42;;;;;;;18.95;13.63;;;14.30;90.70;;;;;;5073164;28;20047;-75
2024/03/21 02:48:09;;;;;;;18.13;13.40;;;14.30;90.70;;;;;;5072788;28;20043;-76
2024/03/21 02:50:34;;;;;;;20.20;14.07;;;14.30;90.60;;;;;;5072764;28;20024;-73
2024/03/21 02:53:03;;;;;;;18.25;14.85;;;14.30;90.70;;;;;;5054405;28;20503;-75
2024/03/21 02:55:28;;;;;;;19.83;14.68;;;14.30;90.70;;;;;;5054454;28;20040;-75
2024/03/21 02:57:54;;;;;;;22.70;14.95;;;14.20;90.70;;;;;;5072379;28;20392;-75
2024/03/21 03:00:20;;;;;;;23.60;15.98;;;14.20;90.70;;;;;;5072520;28;20033;-74
2024/03/21 03:02:45;;;;;;;21.23;14.25;;;14.20;90.80;;;;;;5072714;28;20093;-75
2024/03/21 03:05:13;;;;;;;18.27;14.02;;;14.20;90.90;;;;;;5073813;28;20071;-74
2024/03/21 03:07:38;;;;;;;20.40;13.98;;;14.20;90.80;;;;;;5073041;28;20530;-75
2024/03/21 03:10:04;;;;;;;19.15;14.05;;;14.10;90.90;;;;;;5054628;28;20068;-73
2024/03/21 03:12:31;;;;;;;18.48;14.60;;;14.10;90.90;;;;;;5072170;28;20376;-74
2024/03/21 03:14:56;;;;;;;20.83;14.63;;;14.00;90.90;;;;;;5071962;28;20039;-74
2024/03/21 03:17:22;;;;;;;21.02;14.55;;;14.00;90.90;;;;;;5072382;28;20025;-74
2024/03/21 03:19:48;;;;;;;17.90;13.52;;;13.90;90.90;;;;;;5075003;28;20032;-75
2024/03/21 03:22:13;;;;;;;17.85;13.10;;;13.90;91.00;;;;;;5074450;28;20036;-75
2024/03/21 03:24:39;;;;;;;20.50;13.85;;;13.80;90.90;;;;;;5055277;28;20067;-74
2024/03/21 03:27:05;;;;;;;18.27;13.00;;;13.80;90.90;;;;;;5072258;28;20568;-75
2024/03/21 03:29:30;;;;;;;17.42;12.75;;;13.80;91.30;;;;;;5072236;28;20035;-74
2024/03/21 03:32:01;;;;;;;20.77;13.88;;;13.70;90.90;;;;;;5071996;28;20051;-74
2024/03/21 03:37:15;;;;;;;18.63;14.15;;;13.60;91.10;;;;;;5076427;28;20460;-75
2024/03/21 03:39:41;;;;;;;18.08;12.98;;;13.60;90.90;;;;;;5073173;28;20039;-74
2024/03/21 03:42:07;;;;;;;18.48;13.70;;;13.60;91.00;;;;;;5071742;28;20032;-75
2024/03/21 03:44:33;;;;;;;24.20;14.07;;;13.60;91.00;;;;;;5071926;28;20485;-75
2024/03/21 03:46:59;;;;;;;18.17;14.52;;;13.60;91.00;;;;;;5053705;28;20124;-74
2024/03/21 03:49:25;;;;;;;19.38;13.75;;;13.50;91.10;;;;;;5071722;28;20025;-75
2024/03/21 03:51:51;;;;;;;20.17;14.25;;;13.50;91.10;;;;;;5074590;28;20055;-75
2024/03/21 03:54:17;;;;;;;21.90;14.82;;;13.50;91.20;;;;;;5076150;28;20040;-75
2024/03/21 03:56:43;;;;;;;21.38;15.77;;;13.40;91.10;;;;;;5075846;28;20029;-73
2024/03/21 03:59:08;;;;;;;21.48;15.43;;;13.40;91.20;;;;;;5076038;28;20101;-74
2024/03/21 04:01:34;;;;;;;25.95;15.05;;;13.30;91.20;;;;;;5088005;28;20036;-74
2024/03/21 04:04:00;;;;;;;19.23;14.13;;;13.30;91.30;;;;;;5096108;28;20047;-74
2024/03/21 04:06:26;;;;;;;17.70;14.20;;;13.30;91.30;;;;;;5077870;28;20028;-75
2024/03/21 04:08:52;;;;;;;20.92;15.13;;;13.30;91.20;;;;;;5095766;28;20036;-75
2024/03/21 04:11:18;;;;;;;20.48;15.52;;;13.30;91.30;;;;;;5095183;28;20559;-75
2024/03/21 04:13:44;;;;;;;25.00;14.90;;;13.30;91.40;;;;;;5096048;28;20056;-74
2024/03/21 04:16:17;;;;;;;25.75;15.55;;;13.40;91.40;;;;;;5094892;28;20476;-75
2024/03/21 04:18:43;;;;;;;23.98;16.63;;;13.50;91.50;;;;;;5103374;22;20394;-76
2024/03/21 04:21:10;;;;;;;21.35;14.98;;;13.40;91.30;;;;;;5093665;28;20039;-74
2024/03/21 04:23:36;;;;;;;23.08;16.55;;;13.40;91.20;;;;;;5075270;28;20036;-76
2024/03/21 04:26:01;;;;;;;20.77;15.52;;;13.40;91.30;;;;;;5070156;28;20090;-76
2024/03/21 04:28:27;;;;;;;19.13;14.45;;;13.40;91.40;;;;;;5088732;28;20040;-74
2024/03/21 04:30:53;;;;;;;21.55;14.32;;;13.40;91.30;;;;;;5093709;28;20074;-75
2024/03/21 04:33:18;;;;;;;21.23;14.13;;;13.30;91.40;;;;;;5095093;28;20085;-76
2024/03/21 04:35:44;;;;;;;21.25;14.48;;;13.30;91.40;;;;;;5095594;28;20138;-75
2024/03/21 04:38:10;;;;;;;20.88;14.10;;;13.30;91.50;;;;;;5095474;28;20114;-74
2024/03/21 04:40:36;;;;;;;21.77;15.73;;;13.30;91.60;;;;;;5095362;28;20028;-74
2024/03/21 04:43:02;;;;;;;22.75;15.50;;;13.30;91.70;;;;;;5095449;28;20032;-74
2024/03/21 04:45:28;;;;;;;24.13;16.58;;;13.30;91.60;;;;;;5095097;28;20025;-74
2024/03/21 04:47:55;;;;;;;27.33;17.17;;;13.20;91.70;;;;;;5077246;28;20063;-75
2024/03/21 04:50:21;;;;;;;27.45;16.08;;;13.20;91.80;;;;;;5095198;28;20032;-76
2024/03/21 04:52:47;;;;;;;24.35;16.52;;;13.20;91.80;;;;;;5094658;28;20038;-73
2024/03/21 04:55:13;;;;;;;22.35;16.80;;;13.20;91.90;;;;;;5094489;28;20110;-74
2024/03/21 04:57:42;;;;;;;24.17;15.85;;;13.20;91.90;;;;;;5088167;28;20040;-71
2024/03/21 05:00:12;;;;;;;28.00;16.55;;;13.20;91.90;;;;;;5094029;28;20036;-72
2024/03/21 05:02:39;;;;;;;23.88;15.77;;;13.60;92.70;;;;;;5092356;28;20035;-73
2024/03/21 05:05:05;;;;;;;25.73;15.82;;;13.60;91.90;;;;;;5092493;28;20032;-72
2024/03/21 05:07:31;;;;;;;23.20;15.27;;;13.60;91.80;;;;;;5093140;28;20439;-74
2024/03/21 05:09:57;;;;;;;21.60;15.55;;;13.60;91.70;;;;;;5094040;28;20070;-74
2024/03/21 05:12:23;;;;;;;24.83;16.15;;;13.60;91.70;;;;;;5093693;28;20056;-74
2024/03/21 05:14:49;;;;;;;24.83;18.60;;;13.60;91.70;;;;;;5093952;28;20071;-73
2024/03/21 05:17:17;;;;;;;27.73;18.23;;;13.60;91.70;;;;;;5094115;28;20070;-73
2024/03/21 05:19:47;;;;;;;23.42;18.70;;;13.60;91.70;;;;;;5094978;28;20031;-73
2024/03/21 05:22:13;;;;;;;26.70;19.10;;;13.60;91.80;;;;;;5095110;28;20039;-74
2024/03/21 05:24:39;;;;;;;24.23;18.80;;;13.60;91.80;;;;;;5077285;28;20360;-73
2024/03/21 05:27:06;;;;;;;27.90;20.08;;;13.50;91.70;;;;;;5094352;28;20043;-74
2024/03/21 05:29:35;;;;;;;24.65;17.08;;;13.50;91.90;;;;;;5094705;28;20122;-73
2024/03/21 05:32:01;;;;;;;33.10;20.95;;;13.50;91.80;;;;;;5094374;28;20033;-74
2024/03/21 05:34:27;;;;;;;36.25;22.00;;;13.60;91.90;;;;;;5094611;28;20119;-73
2024/03/21 05:36:53;;;;;;;33.08;21.23;;;13.60;91.80;;;;;;5094483;28;20133;-73
2024/03/21 05:39:19;;;;;;;32.97;20.83;;;13.60;92.00;;;;;;5094359;28;20085;-73
2024/03/21 05:41:45;;;;;;;32.15;21.85;;;13.70;92.00;;;;;;5094210;28;20033;-73
2024/03/21 05:44:10;;;;;;;32.75;20.92;;;13.80;91.70;;;;;;5094299;28;20032;-73
2024/03/21 05:46:36;;;;;;;28.27;17.73;;;13.80;91.70;;;;;;5094130;28;20078;-73
2024/03/21 05:49:01;;;;;;;24.33;16.05;;;13.80;91.70;;;;;;5076132;28;20036;-74
2024/03/21 05:51:27;;;;;;;25.20;17.42;;;13.90;91.60;;;;;;5094212;28;20059;-74
2024/03/21 05:53:53;;;;;;;28.77;18.98;;;14.00;91.50;;;;;;5094034;28;20484;-73
2024/03/21 05:56:18;;;;;;;34.05;19.85;;;14.10;91.50;;;;;;5075799;28;20395;-74
2024/03/21 05:58:44;;;;;;;33.95;22.80;;;14.20;91.30;;;;;;5094231;28;20028;-74
2024/03/21 06:03:41;;;;;;;40.20;23.75;;;14.10;91.50;;;;;;5094373;28;20028;-74
2024/03/21 06:06:07;;;;;;;43.78;24.63;;;14.20;91.50;;;;;;5093795;28;20484;-74
2024/03/21 06:08:33;;;;;;;42.28;23.88;;;14.20;91.70;;;;;;5093942;28;20348;-74
2024/03/21 06:10:59;;;;;;;37.13;23.33;;;14.30;91.60;;;;;;5093816;28;20038;-74
2024/03/21 06:13:25;;;;;;;38.63;23.48;;;14.50;91.60;;;;;;5093055;28;20398;-74
2024/03/21 06:15:50;;;;;;;37.28;23.30;;;15.00;91.30;;;;;;5075559;28;20042;-73
2024/03/21 06:18:16;;;;;;;35.58;22.10;;;15.60;90.50;;;;;;5093753;28;20047;-74
2024/03/21 06:20:42;;;;;;;35.30;21.85;;;16.20;89.90;;;;;;5093502;28;20064;-74
2024/03/21 06:23:08;;;;;;;29.27;19.85;;;16.50;88.70;;;;;;5093492;28;20525;-73
2024/03/21 06:25:33;;;;;;;31.40;20.23;;;16.20;87.70;;;;;;5093578;28;20040;-73
2024/03/21 06:28:01;;;;;;;30.73;20.13;;;15.90;88.70;;;;;;5093486;28;20395;-74
2024/03/21 06:30:26;;;;;;;31.65;20.17;;;15.50;89.40;;;;;;5094121;28;20111;-75
2024/03/21 06:32:53;;;;;;;34.50;21.90;;;15.40;90.20;;;;;;5075687;28;20197;-75
2024/03/21 06:35:19;;;;;;;36.03;21.23;;;15.20;90.20;;;;;;5093370;28;20099;-73
2024/03/21 06:37:45;;;;;;;36.03;21.50;;;15.20;90.30;;;;;;5075036;28;20368;-73
2024/03/21 06:40:11;;;;;;;36.45;22.20;;;15.30;90.30;;;;;;5093177;28;20085;-74
2024/03/21 06:42:37;;;;;;;35.30;21.35;;;15.20;90.20;;;;;;5093304;28;20032;-74
2024/03/21 06:45:04;;;;;;;33.83;21.95;;;15.40;90.30;;;;;;5093064;28;20376;-75
2024/03/21 06:47:30;;;;;;;34.58;23.25;;;15.70;90.00;;;;;;5093097;28;20095;-76
2024/03/21 06:49:56;;;;;;;37.63;23.20;;;16.20;89.30;;;;;;5093178;28;20039;-74
2024/03/21 06:52:23;;;;;;;41.63;25.98;;;16.80;87.60;;;;;;5093229;28;20499;-74
2024/03/21 06:54:49;;;;;;;39.90;24.13;;;16.80;86.90;;;;;;5075067;28;20047;-75
2024/03/21 06:57:14;;;;;;;39.97;23.10;;;16.60;86.80;;;;;;5093080;28;20036;-73
2024/03/21 06:59:40;;;;;;;46.00;24.20;;;16.40;87.30;;;;;;5093043;28;20032;-75
2024/03/21 07:02:07;;;;;;;40.60;24.73;;;16.20;87.90;;;;;;5093309;28;20020;-74
2024/03/21 07:04:33;;;;;;;43.35;27.10;;;16.10;88.30;;;;;;5093211;28;20110;-75
2024/03/21 07:06:59;;;;;;;38.13;24.75;;;16.00;88.30;;;;;;5092889;28;20056;-75
2024/03/21 07:09:24;;;;;;;42.47;25.23;;;16.20;88.40;;;;;;5093612;28;20082;-73
2024/03/21 07:11:50;;;;;;;39.25;24.08;;;16.50;88.00;;;;;;5093357;28;20075;-75
2024/03/21 07:14:16;;;;;;;40.80;24.73;;;16.60;87.00;;;;;;5092738;28;20047;-75
2024/03/21 07:16:43;;;;;;;36.40;23.35;;;16.70;86.90;;;;;;5094109;28;20040;-74
2024/03/21 07:19:08;;;;;;;68.75;24.70;;;16.80;86.70;;;;;;5093888;28;20054;-75
2024/03/21 07:21:34;;;;;;;43.72;25.08;;;17.20;85.80;;;;;;5092800;28;20032;-75
2024/03/21 07:24:00;;;;;;;45.33;25.08;;;17.70;84.60;;;;;;5093186;28;20028;-74
2024/03/21 07:26:25;;;;;;;40.47;24.00;;;18.40;83.50;;;;;;5092706;28;20107;-74
2024/03/21 07:28:51;;;;;;;41.80;23.42;;;19.80;80.90;;;;;;5093106;28;20043;-75
2024/03/21 07:31:16;;;;;;;41.88;22.25;;;20.90;78.80;;;;;;5093079;28;20028;-74
2024/03/21 07:33:43;;;;;;;36.80;21.77;;;21.50;76.30;;;;;;5092472;28;20040;-74
2024/03/21 07:36:09;;;;;;;38.22;21.85;;;21.80;74.70;;;;;;5092426;28;20024;-74
2024/03/21 07:38:34;;;;;;;33.63;20.92;;;21.20;73.70;;;;;;5093043;28;20514;-75
2024/03/21 07:41:01;;;;;;;34.60;20.15;;;20.20;74.80;;;;;;5092904;28;20032;-75
2024/03/21 07:43:27;;;;;;;32.60;21.35;;;19.40;77.60;;;;;;5092634;28;20032;-75
2024/03/21 07:45:53;;;;;;;37.13;21.23;;;18.90;78.80;;;;;;5092534;28;20036;-75
2024/03/21 07:48:19;;;;;;;30.60;20.10;;;18.60;79.80;;;;;;5092278;28;20029;-74
2024/03/21 07:50:45;;;;;;;33.45;20.90;;;18.30;80.00;;;;;;5092217;28;20115;-75
2024/03/21 07:53:11;;;;;;;34.05;20.67;;;17.90;80.70;;;;;;5092160;28;20040;-75
2024/03/21 07:55:37;;;;;;;32.50;20.63;;;17.60;80.80;;;;;;5092526;28;20032;-75
2024/03/21 07:58:06;;;;;;;30.95;20.35;;;17.40;81.90;;;;;;5092223;28;20020;-74
2024/03/21 08:00:33;;;;;;;32.38;20.20;;;17.30;82.00;;;;;;5092387;28;20036;-75
2024/03/21 08:02:59;;;;;;;36.03;19.95;;;17.30;82.40;;;;;;5092284;28;20112;-74
2024/03/21 08:05:25;;;;;;;34.25;20.17;;;17.30;82.40;;;;;;5092205;28;20455;-75
2024/03/21 08:07:51;;;;;;;31.95;21.98;;;17.20;82.50;;;;;;5092296;28;20029;-75
2024/03/21 08:10:17;;;;;;;39.80;21.60;;;17.20;82.70;;;;;;5092299;28;20035;-76
2024/03/21 08:12:43;;;;;;;33.83;21.50;;;17.20;83.10;;;;;;5092188;28;20071;-74
2024/03/21 08:15:08;;;;;;;32.38;19.50;;;17.20;83.20;;;;;;5092082;28;20048;-75
2024/03/21 08:17:34;;;;;;;34.20;20.42;;;17.20;83.30;;;;;;5074133;28;20036;-74
2024/03/21 08:20:01;;;;;;;34.35;22.02;;;17.20;83.30;;;;;;5092407;28;20114;-75
2024/03/21 08:22:27;;;;;;;40.97;23.20;;;17.20;83.30;;;;;;5092450;28;20028;-75
2024/03/21 08:24:53;;;;;;;41.28;23.48;;;17.10;83.40;;;;;;5092534;28;20522;-75
2024/03/21 08:27:19;;;;;;;40.45;21.95;;;17.00;83.40;;;;;;5074119;28;20036;-75
2024/03/21 08:29:50;;;;;;;32.38;20.40;;;16.90;83.90;;;;;;5091942;28;20498;-74
2024/03/21 08:32:21;;;;;;;35.45;21.95;;;16.80;84.10;;;;;;5091481;28;20503;-74
2024/03/21 08:34:47;;;;;;;39.50;21.25;;;16.80;84.30;;;;;;5091814;28;20039;-75
2024/03/21 08:37:13;;;;;;;43.65;22.20;;;16.60;84.30;;;;;;5092934;28;20032;-75
2024/03/21 08:39:38;;;;;;;31.67;20.35;;;16.60;84.60;;;;;;5095734;28;20036;-75
2024/03/21 08:42:04;;;;;;;37.40;21.88;;;16.70;84.80;;;;;;5095424;28;20115;-74
2024/03/21 08:44:30;;;;;;;31.63;19.60;;;16.80;85.00;;;;;;5095713;28;20059;-74
2024/03/21 08:46:55;;;;;;;31.23;19.50;;;16.80;84.60;;;;;;5095587;28;20485;-75
2024/03/21 08:49:21;;;;;;;39.53;22.02;;;16.80;84.60;;;;;;5095553;28;20095;-75
2024/03/21 08:51:46;;;;;;;36.50;19.95;;;16.80;84.50;;;;;;5095571;28;20024;-75
2024/03/21 08:54:12;;;;;;;25.27;16.50;;;16.70;84.50;;;;;;5095297;28;20463;-74
2024/03/21 08:56:38;;;;;;;26.90;16.92;;;16.90;84.70;;;;;;5095721;28;20032;-74
2024/03/21 08:59:03;;;;;;;29.90;17.83;;;16.90;84.40;;;;;;5077898;28;20559;-75
2024/03/21 09:01:29;;;;;;;27.17;16.95;;;17.00;84.30;;;;;;5095370;28;20058;-75
2024/03/21 09:03:55;;;;;;;25.45;16.80;;;17.00;83.80;;;;;;5095415;28;20112;-75
2024/03/21 09:06:21;;;;;;;25.58;16.17;;;16.90;83.80;;;;;;5094839;28;20028;-75
2024/03/21 09:08:47;;;;;;;25.63;15.73;;;16.90;83.70;;;;;;5095041;28;20459;-74
2024/03/21 09:11:12;;;;;;;26.92;15.48;;;17.00;83.60;;;;;;5095151;28;20055;-75
2024/03/21 09:13:38;;;;;;;23.45;14.93;;;17.00;83.20;;;;;;5095268;28;20404;-75
2024/03/21 09:16:07;;;;;;;24.02;16.83;;;17.10;83.20;;;;;;5095386;28;20396;-77
2024/03/21 09:18:33;;;;;;;25.23;16.27;;;17.20;83.00;;;;;;5094608;28;20103;-75
2024/03/21 09:21:02;;;;;;;24.80;15.65;;;17.30;82.60;;;;;;5094802;28;20036;-76
2024/03/21 09:23:29;;;;;;;25.30;15.98;;;17.20;82.30;;;;;;5095265;28;20086;-75
2024/03/21 09:26:01;;;;;;;24.85;16.65;;;17.30;82.50;;;;;;5076427;28;20036;-75
2024/03/21 09:28:27;;;;;;;24.50;16.70;;;17.30;82.50;;;;;;5095116;28;20430;-75
2024/03/21 09:30:53;;;;;;;22.95;16.42;;;17.30;82.30;;;;;;5077037;28;20078;-75
2024/03/21 09:33:18;;;;;;;25.73;17.23;;;17.40;82.40;;;;;;5076493;28;20135;-75
2024/03/21 09:35:54;;;;;;;24.30;15.35;;;17.50;82.30;;;;;;5094553;28;20040;-75
2024/03/21 09:38:20;;;;;;;24.65;15.38;;;17.50;82.10;;;;;;5094703;28;20078;-75
2024/03/21 09:40:46;;;;;;;23.75;15.65;;;17.70;81.90;;;;;;5094373;28;20032;-77
2024/03/21 09:43:12;;;;;;;23.52;14.90;;;17.80;81.70;;;;;;5095075;28;20042;-75
2024/03/21 09:45:39;;;;;;;26.17;16.50;;;17.90;81.70;;;;;;5094689;28;20384;-75
2024/03/21 09:48:05;;;;;;;21.50;14.25;;;17.90;81.40;;;;;;5093765;28;20032;-74
2024/03/21 09:50:31;;;;;;;25.65;15.70;;;18.10;81.40;;;;;;5094055;28;20036;-75
2024/03/21 09:52:56;;;;;;;21.13;13.88;;;18.20;80.70;;;;;;5096002;28;20122;-73
2024/03/21 09:55:24;;;;;;;21.92;14.73;;;18.30;80.30;;;;;;5082183;28;20111;-74
2024/03/21 09:57:51;;;;;;;18.70;11.98;;;18.40;79.80;;;;;;5085516;28;20079;-75
2024/03/21 10:00:17;;;;;;;19.13;12.93;;;18.50;79.40;;;;;;5088167;28;20464;-74
2024/03/21 10:02:44;;;;;;;23.77;13.40;;;18.60;78.50;;;;;;5073463;28;20548;-74
2024/03/21 10:05:23;;;;;;;21.00;12.55;;;18.70;78.10;;;;;;5092453;28;20032;-74
2024/03/21 10:07:49;;;;;;;24.58;14.55;;;18.80;77.60;;;;;;5075875;28;20538;-72
2024/03/21 10:10:15;;;;;;;35.78;15.10;;;18.90;77.10;;;;;;5074792;28;20472;-71
2024/03/21 10:12:41;;;;;;;21.83;12.02;;;19.00;76.50;;;;;;5094266;28;20046;-73
2024/03/21 10:15:13;;;;;;;63.72;15.48;;;19.10;76.20;;;;;;5094111;28;20048;-73
